Time,TemperatureF,DewpointF,PressureIn,WindDirection,WindDirectionDegrees,WindSpeedMPH,WindSpeedGustMPH,Humidity,HourlyPrecipIn,Conditions,Clouds,dailyrainin,SolarRadiationWatts/m^2,SoftwareType,DateUTC
2013-04-23 00:00:00,50.0,33.0,-100.00,ESE,112,2.0,-999.0,52,-99.99,,,-99.99,0.000000,,2013-04-23 04:00:00,
2013-04-23 00:44:00,50.0,33.0,-100.00,ESE,112,2.0,-999.0,52,-99.99,,,-99.99,0.000000,,2013-04-23 04:44:00,
2013-04-23 00:53:00,50.0,33.0,-100.00,ESE,112,2.0,-999.0,52,-99.99,,,-99.99,0.000000,,2013-04-23 04:53:00,
2013-04-23 02:00:00,49.0,35.0,-100.00,SE,135,5.0,-999.0,58,-99.99,,,-99.99,0.000000,,2013-04-23 06:00:00,
2013-04-23 02:42:00,49.0,35.0,-100.00,SE,135,5.0,-999.0,58,-99.99,,,-99.99,0.000000,,2013-04-23 06:42:00,
2013-04-23 02:52:00,49.0,35.0,-100.00,SE,135,5.0,-999.0,58,-99.99,,,-99.99,0.000000,,2013-04-23 06:52:00,
2013-04-23 03:00:00,47.0,35.0,-100.00,SE,135,5.0,-999.0,62,-99.99,,,-99.99,0.000000,,2013-04-23 07:00:00,
2013-04-23 03:42:00,47.0,35.0,-100.00,SE,135,5.0,-999.0,62,-99.99,,,-99.99,0.000000,,2013-04-23 07:42:00,
2013-04-23 03:52:00,47.0,35.0,-100.00,SE,135,5.0,-999.0,62,-99.99,,,-99.99,0.000000,,2013-04-23 07:52:00,
2013-04-23 04:00:00,47.0,36.0,-100.00,SE,135,6.0,-999.0,64,-99.99,,,-99.99,0.000000,,2013-04-23 08:00:00,
2013-04-23 04:42:00,47.0,36.0,-100.00,SE,135,6.0,-999.0,64,-99.99,,,-99.99,0.000000,,2013-04-23 08:42:00,
2013-04-23 04:52:00,47.0,36.0,-100.00,SE,135,6.0,-999.0,64,-99.99,,,-99.99,0.000000,,2013-04-23 08:52:00,
2013-04-23 05:00:00,47.0,36.0,-100.00,SE,135,5.0,-999.0,64,-99.99,,,-99.99,0.000000,,2013-04-23 09:00:00,
2013-04-23 05:43:00,47.0,36.0,-100.00,SE,135,5.0,-999.0,64,-99.99,,,-99.99,0.000000,,2013-04-23 09:43:00,
2013-04-23 05:53:00,47.0,36.0,-100.00,SE,135,5.0,-999.0,64,-99.99,,,-99.99,0.000000,,2013-04-23 09:53:00,
2013-04-23 06:00:00,48.0,36.0,-100.00,SE,135,4.0,-999.0,64,-99.99,,,-99.99,0.000000,,2013-04-23 10:00:00,
2013-04-23 06:43:00,48.0,36.0,-100.00,SE,135,4.0,-999.0,64,-99.99,,,-99.99,0.000000,,2013-04-23 10:43:00,
2013-04-23 06:52:00,48.0,36.0,-100.00,SE,135,4.0,-999.0,64,-99.99,,,-99.99,0.000000,,2013-04-23 10:52:00,
2013-04-23 07:00:00,50.0,37.0,-100.00,SSE,157,5.0,-999.0,60,-99.99,,,-99.99,0.000000,,2013-04-23 11:00:00,
2013-04-23 07:43:00,50.0,37.0,-100.00,SSE,157,5.0,-999.0,60,-99.99,,,-99.99,0.000000,,2013-04-23 11:43:00,
2013-04-23 07:53:00,50.0,37.0,-100.00,SSE,157,5.0,-999.0,60,-99.99,,,-99.99,0.000000,,2013-04-23 11:53:00,
2013-04-23 09:00:00,52.0,40.0,-100.00,South,180,4.0,-999.0,62,-99.99,,,-99.99,54.520000,,2013-04-23 13:00:00,
2013-04-23 09:42:00,52.0,40.0,-100.00,South,180,4.0,-999.0,62,-99.99,,,-99.99,54.520000,,2013-04-23 13:42:00,
2013-04-23 09:52:00,52.0,40.0,-100.00,South,180,4.0,-999.0,62,-99.99,,,-99.99,54.520000,,2013-04-23 13:52:00,
2013-04-23 10:00:00,54.0,41.0,-100.00,SSE,157,5.0,-999.0,62,-99.99,,,-99.99,95.120003,,2013-04-23 14:00:00,
2013-04-23 10:42:00,54.0,41.0,-100.00,SSE,157,5.0,-999.0,62,-99.99,,,-99.99,95.120003,,2013-04-23 14:42:00,
2013-04-23 10:52:00,54.0,41.0,-100.00,SSE,157,5.0,-999.0,62,-99.99,,,-99.99,95.120003,,2013-04-23 14:52:00,
2013-04-23 11:00:00,58.0,43.0,-100.00,South,180,8.0,-999.0,58,-99.99,,,-99.99,298.119995,,2013-04-23 15:00:00,
2013-04-23 11:43:00,58.0,43.0,-100.00,South,180,8.0,-999.0,58,-99.99,,,-99.99,298.119995,,2013-04-23 15:43:00,
2013-04-23 11:53:00,58.0,43.0,-100.00,South,180,8.0,-999.0,58,-99.99,,,-99.99,298.119995,,2013-04-23 15:53:00,
2013-04-23 12:00:00,61.0,44.0,-100.00,South,180,8.0,-999.0,53,-99.99,,,-99.99,349.160004,,2013-04-23 16:00:00,
2013-04-23 12:43:00,61.0,44.0,-100.00,South,180,8.0,-999.0,53,-99.99,,,-99.99,349.160004,,2013-04-23 16:43:00,
2013-04-23 12:53:00,61.0,44.0,-100.00,South,180,8.0,-999.0,53,-99.99,,,-99.99,349.160004,,2013-04-23 16:53:00,
2013-04-23 13:00:00,62.0,45.0,-100.00,South,180,9.0,-999.0,52,-99.99,,,-99.99,306.239990,,2013-04-23 17:00:00,
2013-04-23 13:43:00,62.0,45.0,-100.00,South,180,9.0,-999.0,52,-99.99,,,-99.99,306.239990,,2013-04-23 17:43:00,
2013-04-23 13:53:00,62.0,45.0,-100.00,South,180,9.0,-999.0,52,-99.99,,,-99.99,306.239990,,2013-04-23 17:53:00,
2013-04-23 14:00:00,64.0,45.0,-100.00,SSW,202,10.0,-999.0,50,-99.99,,,-99.99,322.480011,,2013-04-23 18:00:00,
2013-04-23 14:42:00,64.0,45.0,-100.00,SSW,202,10.0,-999.0,50,-99.99,,,-99.99,322.480011,,2013-04-23 18:42:00,
2013-04-23 14:52:00,64.0,45.0,-100.00,SSW,202,10.0,-999.0,50,-99.99,,,-99.99,322.480011,,2013-04-23 18:52:00,
2013-04-23 15:00:00,63.0,47.0,-100.00,SSW,202,8.0,-999.0,55,-99.99,,,-99.99,102.080002,,2013-04-23 19:00:00,
2013-04-23 15:42:00,63.0,47.0,-100.00,SSW,202,8.0,-999.0,55,-99.99,,,-99.99,102.080002,,2013-04-23 19:42:00,
2013-04-23 15:52:00,63.0,47.0,-100.00,SSW,202,8.0,-999.0,55,-99.99,,,-99.99,102.080002,,2013-04-23 19:52:00,
2013-04-23 16:00:00,54.0,50.0,-100.00,West,270,7.0,-999.0,86,0.17,,,-99.99,49.880001,,2013-04-23 20:00:00,
2013-04-23 16:42:00,54.0,50.0,-100.00,West,270,7.0,-999.0,86,0.17,,,-99.99,49.880001,,2013-04-23 20:42:00,
2013-04-23 16:52:00,54.0,50.0,-100.00,West,270,7.0,-999.0,86,0.17,,,-99.99,49.880001,,2013-04-23 20:52:00,
2013-04-23 17:00:00,51.0,50.0,-100.00,WSW,247,4.0,-999.0,94,0.08,,,-99.99,54.520000,,2013-04-23 21:00:00,
2013-04-23 17:43:00,51.0,50.0,-100.00,WSW,247,4.0,-999.0,94,0.08,,,-99.99,54.520000,,2013-04-23 21:43:00,
2013-04-23 17:52:00,51.0,50.0,-100.00,WSW,247,4.0,-999.0,94,0.08,,,-99.99,54.520000,,2013-04-23 21:52:00,
2013-04-23 19:00:00,41.0,39.0,-100.00,NW,315,10.0,-999.0,94,0.10,,,-99.99,16.240000,,2013-04-23 23:00:00,
2013-04-23 19:42:00,41.0,39.0,-100.00,NW,315,10.0,-999.0,94,0.10,,,-99.99,16.240000,,2013-04-23 23:42:00,
2013-04-23 19:52:00,41.0,39.0,-100.00,NW,315,10.0,-999.0,94,0.10,,,-99.99,16.240000,,2013-04-23 23:52:00,
2013-04-23 21:00:00,39.0,38.0,-100.00,WNW,292,6.0,-999.0,94,0.04,,,-99.99,1.160000,,2013-04-24 01:00:00,
2013-04-23 21:43:00,39.0,38.0,-100.00,WNW,292,6.0,-999.0,94,0.04,,,-99.99,1.160000,,2013-04-24 01:43:00,
2013-04-23 21:52:00,39.0,38.0,-100.00,WNW,292,6.0,-999.0,94,0.04,,,-99.99,1.160000,,2013-04-24 01:52:00,
2013-04-23 22:00:00,39.0,38.0,-100.00,NW,315,5.0,-999.0,94,0.06,,,-99.99,0.000000,,2013-04-24 02:00:00,
2013-04-23 22:50:00,39.0,38.0,-100.00,NW,315,5.0,-999.0,94,0.06,,,-99.99,0.000000,,2013-04-24 02:50:00,
2013-04-23 23:00:00,38.0,37.0,-100.00,WNW,292,5.0,-999.0,95,0.10,,,-99.99,0.000000,,2013-04-24 03:00:00,
2013-04-23 23:53:00,38.0,37.0,-100.00,WNW,292,5.0,-999.0,95,0.10,,,-99.99,0.000000,,2013-04-24 03:53:00,